sensor_id;sensor_type;location;lat;lon;timestamp;temperature;humidity
57719;DHT22;43561;50.090;18.522;2023-09-30T00:01:02;14.50;99.90
57719;DHT22;43561;50.090;18.522;2023-09-30T00:23:21;14.90;99.90
57719;DHT22;43561;50.090;18.522;2023-09-30T00:33:23;15.10;99.90
57719;DHT22;43561;50.090;18.522;2023-09-30T00:43:26;15.20;99.90
57719;DHT22;43561;50.090;18.522;2023-09-30T00:53:29;15.30;99.90
57719;DHT22;43561;50.090;18.522;2023-09-30T01:03:31;15.30;99.90
57719;DHT22;43561;50.090;18.522;2023-09-30T01:13:34;15.50;99.90
57719;DHT22;43561;50.090;18.522;2023-09-30T01:23:36;15.60;99.90
57719;DHT22;43561;50.090;18.522;2023-09-30T01:33:39;15.70;99.90
57719;DHT22;43561;50.090;18.522;2023-09-30T01:55:14;16.10;99.90
57719;DHT22;43561;50.090;18.522;2023-09-30T02:05:50;16.20;99.90
57719;DHT22;43561;50.090;18.522;2023-09-30T04:22:33;16.10;99.90
57719;DHT22;43561;50.090;18.522;2023-09-30T04:32:38;16.00;99.90
57719;DHT22;43561;50.090;18.522;2023-09-30T04:42:42;15.90;99.90
57719;DHT22;43561;50.090;18.522;2023-09-30T04:52:44;15.80;99.90
57719;DHT22;43561;50.090;18.522;2023-09-30T05:02:46;15.80;99.90
57719;DHT22;43561;50.090;18.522;2023-09-30T05:12:49;15.80;99.90
57719;DHT22;43561;50.090;18.522;2023-09-30T05:22:51;15.90;99.90
57719;DHT22;43561;50.090;18.522;2023-09-30T06:06:27;16.00;99.90
57719;DHT22;43561;50.090;18.522;2023-09-30T06:17:09;16.10;99.90
57719;DHT22;43561;50.090;18.522;2023-09-30T06:27:46;16.30;99.90
57719;DHT22;43561;50.090;18.522;2023-09-30T06:37:48;16.20;99.90
57719;DHT22;43561;50.090;18.522;2023-09-30T06:47:50;16.30;99.90
57719;DHT22;43561;50.090;18.522;2023-09-30T06:57:52;16.30;99.90
57719;DHT22;43561;50.090;18.522;2023-09-30T07:07:54;16.40;99.90
57719;DHT22;43561;50.090;18.522;2023-09-30T07:17:56;16.50;99.90
57719;DHT22;43561;50.090;18.522;2023-09-30T07:27:58;16.60;99.90
57719;DHT22;43561;50.090;18.522;2023-09-30T07:38:01;16.50;99.90
57719;DHT22;43561;50.090;18.522;2023-09-30T07:48:03;16.40;99.90
57719;DHT22;43561;50.090;18.522;2023-09-30T07:58:05;16.40;99.90
57719;DHT22;43561;50.090;18.522;2023-09-30T08:08:07;16.40;99.90
57719;DHT22;43561;50.090;18.522;2023-09-30T08:18:09;16.30;99.90
57719;DHT22;43561;50.090;18.522;2023-09-30T08:28:12;16.30;99.90
57719;DHT22;43561;50.090;18.522;2023-09-30T08:38:17;16.40;99.90
57719;DHT22;43561;50.090;18.522;2023-09-30T08:48:20;16.50;99.90
57719;DHT22;43561;50.090;18.522;2023-09-30T08:58:24;16.60;99.90
57719;DHT22;43561;50.090;18.522;2023-09-30T09:08:27;16.70;99.90
57719;DHT22;43561;50.090;18.522;2023-09-30T09:18:33;17.00;99.90
57719;DHT22;43561;50.090;18.522;2023-09-30T09:28:35;16.60;99.90
57719;DHT22;43561;50.090;18.522;2023-09-30T09:38:50;16.50;99.90
57719;DHT22;43561;50.090;18.522;2023-09-30T09:48:53;16.50;99.90
57719;DHT22;43561;50.090;18.522;2023-09-30T09:58:56;16.60;99.90
57719;DHT22;43561;50.090;18.522;2023-09-30T10:09:09;16.60;99.90
57719;DHT22;43561;50.090;18.522;2023-09-30T10:19:17;16.50;99.90
57719;DHT22;43561;50.090;18.522;2023-09-30T10:29:39;16.40;99.90
57719;DHT22;43561;50.090;18.522;2023-09-30T10:39:58;15.80;99.90
57719;DHT22;43561;50.090;18.522;2023-09-30T10:50:01;15.70;99.90
57719;DHT22;43561;50.090;18.522;2023-09-30T11:00:23;15.70;99.90
57719;DHT22;43561;50.090;18.522;2023-09-30T11:10:47;15.60;99.90
57719;DHT22;43561;50.090;18.522;2023-09-30T11:21:07;15.50;99.90
57719;DHT22;43561;50.090;18.522;2023-09-30T11:31:12;15.30;99.90
57719;DHT22;43561;50.090;18.522;2023-09-30T11:41:18;15.20;99.90
57719;DHT22;43561;50.090;18.522;2023-09-30T11:51:20;15.20;99.90
57719;DHT22;43561;50.090;18.522;2023-09-30T12:01:22;15.20;99.90
57719;DHT22;43561;50.090;18.522;2023-09-30T12:11:25;15.40;99.90
57719;DHT22;43561;50.090;18.522;2023-09-30T12:21:27;15.60;99.90
57719;DHT22;43561;50.090;18.522;2023-09-30T12:31:29;15.60;99.90
57719;DHT22;43561;50.090;18.522;2023-09-30T12:41:50;15.50;99.90
57719;DHT22;43561;50.090;18.522;2023-09-30T12:51:56;15.50;99.90
57719;DHT22;43561;50.090;18.522;2023-09-30T13:02:01;15.60;99.90
57719;DHT22;43561;50.090;18.522;2023-09-30T13:12:06;15.70;99.90
57719;DHT22;43561;50.090;18.522;2023-09-30T13:22:09;15.80;99.90
57719;DHT22;43561;50.090;18.522;2023-09-30T13:43:45;16.30;99.90
57719;DHT22;43561;50.090;18.522;2023-09-30T13:53:47;16.40;99.90
57719;DHT22;43561;50.090;18.522;2023-09-30T14:03:49;16.30;99.90
57719;DHT22;43561;50.090;18.522;2023-09-30T14:14:01;16.20;99.90
57719;DHT22;43561;50.090;18.522;2023-09-30T14:24:03;16.20;99.90
57719;DHT22;43561;50.090;18.522;2023-09-30T14:34:05;16.20;99.90
57719;DHT22;43561;50.090;18.522;2023-09-30T14:44:07;16.00;99.90
57719;DHT22;43561;50.090;18.522;2023-09-30T14:54:09;16.20;99.90
57719;DHT22;43561;50.090;18.522;2023-09-30T15:04:11;16.30;99.90
57719;DHT22;43561;50.090;18.522;2023-09-30T15:14:14;16.20;99.90
57719;DHT22;43561;50.090;18.522;2023-09-30T15:24:21;15.90;99.90
57719;DHT22;43561;50.090;18.522;2023-09-30T15:34:28;15.90;99.90
57719;DHT22;43561;50.090;18.522;2023-09-30T15:44:30;15.70;99.90
57719;DHT22;43561;50.090;18.522;2023-09-30T15:54:32;15.60;99.90
57719;DHT22;43561;50.090;18.522;2023-09-30T16:04:34;15.50;99.90
57719;DHT22;43561;50.090;18.522;2023-09-30T16:14:40;15.20;99.90
57719;DHT22;43561;50.090;18.522;2023-09-30T16:24:42;14.90;99.90
57719;DHT22;43561;50.090;18.522;2023-09-30T16:34:47;14.60;99.90
57719;DHT22;43561;50.090;18.522;2023-09-30T16:44:53;14.40;99.90
57719;DHT22;43561;50.090;18.522;2023-09-30T16:54:55;14.20;99.90
57719;DHT22;43561;50.090;18.522;2023-09-30T17:04:57;14.00;99.90
57719;DHT22;43561;50.090;18.522;2023-09-30T17:26:10;13.80;99.90
57719;DHT22;43561;50.090;18.522;2023-09-30T17:36:15;13.60;99.90
57719;DHT22;43561;50.090;18.522;2023-09-30T17:46:24;13.50;99.90
57719;DHT22;43561;50.090;18.522;2023-09-30T18:08:18;13.00;99.90
57719;DHT22;43561;50.090;18.522;2023-09-30T18:18:47;12.80;99.90
57719;DHT22;43561;50.090;18.522;2023-09-30T18:29:12;12.70;99.90
57719;DHT22;43561;50.090;18.522;2023-09-30T18:39:35;12.60;99.90
57719;DHT22;43561;50.090;18.522;2023-09-30T18:49:59;12.40;99.90
57719;DHT22;43561;50.090;18.522;2023-09-30T19:00:02;12.20;99.90
57719;DHT22;43561;50.090;18.522;2023-09-30T19:10:13;12.10;99.90
57719;DHT22;43561;50.090;18.522;2023-09-30T19:20:42;11.80;99.90
57719;DHT22;43561;50.090;18.522;2023-09-30T19:31:04;11.70;99.90
57719;DHT22;43561;50.090;18.522;2023-09-30T19:41:15;11.40;99.90
57719;DHT22;43561;50.090;18.522;2023-09-30T19:51:35;11.20;99.90
57719;DHT22;43561;50.090;18.522;2023-09-30T20:02:20;10.90;99.90
57719;DHT22;43561;50.090;18.522;2023-09-30T20:12:39;10.70;99.90
57719;DHT22;43561;50.090;18.522;2023-09-30T20:22:59;10.70;99.90
57719;DHT22;43561;50.090;18.522;2023-09-30T20:33:07;10.40;99.90
57719;DHT22;43561;50.090;18.522;2023-09-30T20:43:09;10.20;99.90
57719;DHT22;43561;50.090;18.522;2023-09-30T20:53:11;10.10;99.90
57719;DHT22;43561;50.090;18.522;2023-09-30T21:03:13;10.40;99.90
57719;DHT22;43561;50.090;18.522;2023-09-30T21:13:15;10.30;99.90
57719;DHT22;43561;50.090;18.522;2023-09-30T21:23:19;10.10;99.90
57719;DHT22;43561;50.090;18.522;2023-09-30T21:33:30;10.10;99.90
57719;DHT22;43561;50.090;18.522;2023-09-30T21:43:32;10.00;99.90
57719;DHT22;43561;50.090;18.522;2023-09-30T21:53:36;9.80;99.90
57719;DHT22;43561;50.090;18.522;2023-09-30T22:03:42;9.70;99.90
57719;DHT22;43561;50.090;18.522;2023-09-30T22:13:45;9.60;99.90
57719;DHT22;43561;50.090;18.522;2023-09-30T22:23:50;9.10;99.90
57719;DHT22;43561;50.090;18.522;2023-09-30T22:33:55;9.30;99.90
57719;DHT22;43561;50.090;18.522;2023-09-30T22:43:57;9.20;99.90
57719;DHT22;43561;50.090;18.522;2023-09-30T22:53:59;9.10;99.90
57719;DHT22;43561;50.090;18.522;2023-09-30T23:04:01;9.10;99.90
57719;DHT22;43561;50.090;18.522;2023-09-30T23:14:04;9.00;99.90
57719;DHT22;43561;50.090;18.522;2023-09-30T23:24:06;8.70;99.90
57719;DHT22;43561;50.090;18.522;2023-09-30T23:34:08;8.60;99.90
57719;DHT22;43561;50.090;18.522;2023-09-30T23:44:11;8.70;99.90
57719;DHT22;43561;50.090;18.522;2023-09-30T23:54:13;8.60;99.90
